METAR AND TAF INFORMATION
METAR FOR LTBA
ADDS - METARS form results

(2230 UTC 24 April 2018)
Data provider http://aviationweather.gov/adds/metars/
 
METAR text: LTBA 242220Z VRB02KT CAVOK 17/11 Q1015 NOSIG
Conditions at: LTBA (ISTANBUL/ATATURK, TR) observed 2220 UTC 24 April 2018
Temperature: 17.0°C (63°F)
Dewpoint: 11.0°C (52°F) [RH = 68%]
Pressure (altimeter): 29.97 inches Hg (1015.0 mb)
Winds: variable direction winds at 2 MPH (2 knots; 1.0 m/s)
Visibility: 6 or more miles (10+ km)
Ceiling: ceiling and visibility are OK
Clouds: unknown
Weather: no significant weather observed at this time

METAR text: LTBA 242150Z 28003KT 250V320 CAVOK 16/12 Q1015 NOSIG RMK RWY17L 32003KT RWY05 VRB02KT RWY23 VRB01KT
Conditions at: LTBA (ISTANBUL/ATATURK, TR) observed 2150 UTC 24 April 2018
Temperature: 16.0°C (61°F)
Dewpoint: 12.0°C (54°F) [RH = 77%]
Pressure (altimeter): 29.97 inches Hg (1015.0 mb)
Winds: from the W (280 degrees) at 3 MPH (3 knots; 1.6 m/s)
Visibility: 6 or more miles (10+ km)
Ceiling: ceiling and visibility are OK
Clouds: unknown
Weather: no significant weather observed at this time

Forecast for: LTBA (ISTANBUL/ATATURK, TR)
Text: TAF LTBA 241640Z 2418/2524 VRB02KT CAVOK
Forecast period: 1800 UTC 24 April 2018 to 0000 UTC 26 April 2018
Forecast type: FROM: standard forecast or significant change
Winds: variable direction winds at 2 MPH (2 knots; 1.0 m/s)
Visibility: 6 or more miles (10+ km)
Clouds: not forecast
Weather: NSW  (no significant weather)

 AIRPORT MAP

 RUNWAY INFORMATION
Runway 05 Runway length 8530 ft Runway width 197 ft
Runway elevation 93 ft Runway displaced threshold 492 ft Runway heading 59
Runway 23 Runway length 8530 ft Runway width 197 ft
Runway elevation 90 ft Runway displaced threshold 0 ft Runway heading 239
Runway 17L Runway length 9843 ft Runway width 148 ft
Runway elevation 157 ft Runway displaced threshold 0 ft Runway heading 178
Runway 35R Runway length 9843 ft Runway width 148 ft
Runway elevation 100 ft Runway displaced threshold 0 ft Runway heading 358
Runway 17R Runway length 9843 ft Runway width 148 ft
Runway elevation 163 ft Runway displaced threshold 0 ft Runway heading 178
Runway 35L Runway length 9843 ft Runway width 148 ft
Runway elevation 102 ft Runway displaced threshold 0 ft Runway heading 358

 AIRPORT FREQUENCIES
Type APP Name YESILKOY A Frequency 120.5 MHZ
Type ATIS Name ATIS Frequency 128.2 MHZ
Type CLD Name YESILKOY D Frequency 121.7 MHZ
Type GND Name YESILKOY G Frequency 121.8 MHZ
Type RMP Name YESILKOY R Frequency 121.9 MHZ
Type TWR Name YESILKOY T Frequency 118.1 MHZ

 AIRPORT NEAR NAVIGATION AIDS
Type VORTAC Name Istanbul Frequency 112500 KHZ



Powered by Virtual Airlines Manager [v2.6.2]